Robinson, Pennsylvania
Current Conditions -  °F | °C
As of 7:55 AM on Monday 22 Dec 2014 (Local Time) from KIDI Reporting Station
Clear Clear  
Wind Chill: 27°   Ceiling: Unl
Heat Index: 27°   Visibility: 7mi
Dew Point: 23°   Wind: 0mph
Humidity: 86%   Direction: NA
Pressure: 30.18"   Gusts: NA
Location:  40.4°N, 79.13°W
Report Text: KIDI 221255Z AUTO 00000KT 7SM CLR M03/M05 A3018 RMK A01
Loading
Personal Weather Stations






























Interactive Weather Map New forecast layout! Learn more

10-Day Weather Forecast

Advertisements
Track Severe Weather on mobile